Time;durP1;ratioP1;P1;durP2;ratioP2;P2;SDS_P1;SDS_P2;PMS_P1;PMS_P2;Temp;Humidity;BMP_temperature;BMP_pressure;BME280_temperature;BME280_humidity;BME280_pressure;Samples;Min_cycle;Max_cycle;Signal;HPM_P1;HPM_P2
2021/12/22 00:00:52;;;;;;;;;60.33;46.33;;;;;-0.48;100.00;102060.88;5048740;28;44805;-86
2021/12/22 00:03:18;;;;;;;;;57.00;47.33;;;;;-0.46;100.00;102057.41;5042910;28;44961;-86
2021/12/22 00:05:46;;;;;;;;;62.00;44.33;;;;;-0.49;100.00;102065.25;5042747;28;45196;-85
2021/12/22 00:08:13;;;;;;;;;65.67;49.00;;;;;-0.49;100.00;102062.63;5043299;28;45314;-87
2021/12/22 00:10:40;;;;;;;;;64.67;51.00;;;;;-0.43;100.00;102060.03;5040760;28;45370;-86
2021/12/22 00:13:06;;;;;;;;;76.00;51.33;;;;;-0.37;100.00;102048.72;5045122;28;45276;-86
2021/12/22 00:15:32;;;;;;;;;57.67;47.33;;;;;-0.35;100.00;102054.81;5044427;28;45170;-84
2021/12/22 00:17:57;;;;;;;;;63.33;49.00;;;;;-0.33;100.00;102050.47;5048888;28;44792;-85
2021/12/22 00:20:25;;;;;;;;;80.25;59.50;;;;;-0.31;100.00;102038.28;5048732;28;44781;-85
2021/12/22 00:22:50;;;;;;;;;66.00;50.67;;;;;-0.27;100.00;102043.47;5064391;28;44867;-85
2021/12/22 00:25:16;;;;;;;;;63.33;50.33;;;;;-0.22;100.00;102043.47;5049659;28;45173;-85
2021/12/22 00:27:42;;;;;;;;;69.00;51.33;;;;;-0.19;100.00;102037.38;5050392;28;44779;-85
2021/12/22 00:30:09;;;;;;;;;62.33;51.33;;;;;-0.17;100.00;102028.66;5052088;28;44821;-85
2021/12/22 00:32:36;;;;;;;;;70.33;48.67;;;;;-0.10;100.00;102037.34;5049050;28;44824;-85
2021/12/22 00:35:03;;;;;;;;;78.67;53.67;;;;;-0.04;100.00;102037.38;5051552;28;45253;-85
2021/12/22 00:37:30;;;;;;;;;63.00;50.67;;;;;-0.03;100.00;102033.88;5051686;28;44818;-84
2021/12/22 00:39:57;;;;;;;;;63.00;49.67;;;;;-0.01;100.00;102025.13;5061937;28;44711;-86
2021/12/22 00:42:24;;;;;;;;;65.33;52.00;;;;;0.02;100.00;102028.63;5061125;28;44766;-84
2021/12/22 00:44:53;;;;;;;;;63.67;47.33;;;;;0.04;100.00;102026.88;5046274;28;45176;-86
2021/12/22 00:47:26;;;;;;;;;62.33;50.67;;;;;0.04;100.00;102032.09;5046566;28;44732;-83
2021/12/22 00:49:52;;;;;;;;;61.00;47.33;;;;;0.07;100.00;102035.59;5045321;28;44711;-84
2021/12/22 00:52:17;;;;;;;;;63.00;46.00;;;;;0.09;100.00;102032.97;5039667;28;44703;-84
2021/12/22 00:54:43;;;;;;;;;60.67;50.33;;;;;0.08;100.00;102034.69;5042864;28;45451;-85
2021/12/22 00:57:10;;;;;;;;;63.67;47.67;;;;;0.07;100.00;102035.59;5039937;28;44794;-84
2021/12/22 00:59:36;;;;;;;;;59.33;46.00;;;;;0.11;100.00;102033.84;5035862;28;44702;-85
2021/12/22 01:02:06;;;;;;;;;61.67;47.00;;;;;0.17;100.00;102025.97;5028779;28;44842;-85
2021/12/22 01:04:31;;;;;;;;;62.67;45.00;;;;;0.21;100.00;102030.31;5026489;28;45085;-84
2021/12/22 01:06:57;;;;;;;;;63.33;47.33;;;;;0.22;100.00;102026.81;5028764;28;44715;-85
2021/12/22 01:09:23;;;;;;;;;70.00;51.67;;;;;0.23;100.00;102032.03;5027704;28;45458;-85
2021/12/22 01:11:49;;;;;;;;;54.00;43.33;;;;;0.22;100.00;102030.31;5027040;28;44948;-84
2021/12/22 01:14:15;;;;;;;;;55.67;44.33;;;;;0.20;100.00;102025.97;5023054;28;45233;-83
2021/12/22 01:16:47;;;;;;;;;65.00;47.00;;;;;0.14;100.00;102026.84;5021247;28;44683;-85
2021/12/22 01:19:16;;;;;;;;;61.33;46.67;;;;;0.09;100.00;102018.16;5019709;28;44838;-85
2021/12/22 01:21:49;;;;;;;;;57.67;45.33;;;;;0.11;100.00;102032.09;5020965;28;45368;-85
2021/12/22 01:24:22;;;;;;;;;64.33;40.33;;;;;0.08;100.00;102023.38;5019149;28;45186;-84
2021/12/22 01:26:53;;;;;;;;;59.67;47.33;;;;;0.07;100.00;102035.59;5018628;28;44828;-85
2021/12/22 01:29:19;;;;;;;;;56.00;46.00;;;;;0.12;100.00;102038.19;5018437;28;44710;-85
2021/12/22 01:31:44;;;;;;;;;52.67;45.67;;;;;0.17;100.00;102029.44;5018004;28;45594;-85
2021/12/22 01:34:10;;;;;;;;;58.33;43.00;;;;;0.18;100.00;102018.13;5018978;28;44917;-85
2021/12/22 01:36:37;;;;;;;;;67.67;46.33;;;;;0.20;100.00;102020.75;5019071;28;44786;-86
2021/12/22 01:39:04;;;;;;;;;61.33;47.00;;;;;0.20;100.00;102016.41;5017719;28;44770;-85
2021/12/22 01:41:30;;;;;;;;;59.00;43.67;;;;;0.22;100.00;102021.59;5017862;28;44766;-84
2021/12/22 01:43:56;;;;;;;;;67.00;48.33;;;;;0.21;100.00;102014.66;5031925;28;45122;-85
2021/12/22 01:49:11;;;;;;;;;62.00;46.67;;;;;0.19;100.00;102016.38;5039145;28;44730;-85
2021/12/22 01:52:00;;;;;;;;;59.67;45.00;;;;;0.17;100.00;102011.16;5040998;28;45281;-85
2021/12/22 01:54:34;;;;;;;;;62.00;45.00;;;;;0.19;100.00;102001.59;5043366;28;45178;-84
2021/12/22 01:57:02;;;;;;;;;54.67;43.00;;;;;0.19;100.00;102001.59;5045172;28;44727;-83
2021/12/22 01:59:28;;;;;;;;;64.00;50.67;;;;;0.21;100.00;102001.56;5050798;28;44858;-84
2021/12/22 02:01:54;;;;;;;;;65.33;47.33;;;;;0.20;100.00;102010.31;5052811;28;44976;-84
2021/12/22 02:04:19;;;;;;;;;67.33;50.33;;;;;0.20;100.00;102005.94;5040938;28;45654;-84
2021/12/22 02:06:47;;;;;;;;;64.33;46.00;;;;;0.27;100.00;102011.13;5039065;28;44842;-84
2021/12/22 02:09:23;;;;;;;;;55.67;40.33;;;;;0.27;100.00;102008.53;5044337;28;44753;-83
2021/12/22 02:11:48;;;;;;;;;65.67;50.67;;;;;0.27;100.00;102019.84;5040459;28;44726;-85
2021/12/22 02:14:14;;;;;;;;;76.33;53.67;;;;;0.28;100.00;102013.72;5038566;28;44902;-84
2021/12/22 02:16:40;;;;;;;;;63.67;50.00;;;;;0.32;100.00;102010.22;5037472;28;44822;-85
2021/12/22 02:19:08;;;;;;;;;72.67;50.33;;;;;0.34;100.00;102008.50;5037248;28;44770;-85
2021/12/22 02:21:42;;;;;;;;;68.00;51.33;;;;;0.34;100.00;102007.59;5037255;28;44742;-84
2021/12/22 02:24:08;;;;;;;;;71.67;49.67;;;;;0.34;100.00;102008.50;5051644;28;45501;-84
2021/12/22 02:26:46;;;;;;;;;67.33;49.33;;;;;0.36;100.00;102009.34;5036817;28;44793;-84
2021/12/22 02:29:23;;;;;;;;;71.67;52.67;;;;;0.34;100.00;102005.00;5038742;28;45261;-85
2021/12/22 02:32:36;;;;;;;;;63.00;48.33;;;;;0.31;100.00;102015.47;5039832;28;44735;-86
2021/12/22 02:34:47;;;;;;;;;71.33;52.00;;;;;0.23;100.00;102007.66;5038699;28;45268;-86
2021/12/22 02:37:18;;;;;;;;;70.00;52.33;;;;;0.23;100.00;101999.81;5019837;28;45459;-84
2021/12/22 02:39:46;;;;;;;;;67.00;52.00;;;;;0.27;100.00;102011.13;5039089;28;44758;-84
2021/12/22 02:42:13;;;;;;;;;67.00;50.00;;;;;0.28;100.00;102002.41;5041273;28;44770;-86
2021/12/22 02:44:38;;;;;;;;;63.33;45.67;;;;;0.25;100.00;101993.72;5058063;28;45430;-85
2021/12/22 02:47:22;;;;;;;;;61.00;48.00;;;;;0.25;100.00;101985.03;5042298;28;44872;-84
2021/12/22 02:49:48;;;;;;;;;68.67;49.33;;;;;0.22;100.00;101990.25;5036871;28;44735;-85
2021/12/22 02:52:14;;;;;;;;;65.00;50.33;;;;;0.23;100.00;101994.59;5035524;28;45395;-85
2021/12/22 02:54:50;;;;;;;;;53.67;46.00;;;;;0.19;100.00;101995.47;5037203;28;45159;-85
2021/12/22 02:57:25;;;;;;;;;58.00;46.00;;;;;0.21;100.00;101993.75;5037851;28;44828;-85
2021/12/22 03:02:42;;;;;;;;;73.33;53.00;;;;;0.22;100.00;102000.69;5041127;28;44770;-80
2021/12/22 03:05:08;;;;;;;;;67.00;47.67;;;;;0.20;100.00;101995.50;5035653;28;45110;-80
2021/12/22 03:07:33;;;;;;;;;69.00;48.33;;;;;0.14;100.00;101990.25;5036325;28;44924;-81
2021/12/22 03:10:02;;;;;;;;;62.00;41.67;;;;;0.12;100.00;101986.78;5035811;28;44834;-80
2021/12/22 03:12:32;;;;;;;;;61.67;47.00;;;;;0.10;100.00;101992.91;5035653;28;44909;-80
2021/12/22 03:14:58;;;;;;;;;68.33;51.00;;;;;0.07;100.00;101993.78;5035374;28;45461;-81
2021/12/22 03:17:23;;;;;;;;;65.67;48.67;;;;;0.07;100.00;101996.41;5034312;28;44924;-80
2021/12/22 03:19:49;;;;;;;;;35.00;30.00;;;;;0.04;100.00;101985.94;5035783;28;44759;-80
2021/12/22 03:22:18;;;;;;;;;69.33;51.33;;;;;0.07;100.00;101992.91;5035445;28;44785;-80
2021/12/22 03:24:47;;;;;;;;;48.67;40.33;;;;;0.04;100.00;101982.47;5035978;28;45378;-80
2021/12/22 03:27:12;;;;;;;;;63.33;48.33;;;;;0.03;100.00;101993.81;5035666;28;44825;-80
2021/12/22 03:29:39;;;;;;;;;59.33;43.33;;;;;0.07;100.00;101995.53;5037925;28;44791;-81
2021/12/22 03:32:08;;;;;;;;;63.00;49.67;;;;;0.08;100.00;101999.88;5043488;28;44888;-80
2021/12/22 03:34:34;;;;;;;;;62.67;47.33;;;;;0.09;100.00;101996.38;5041504;28;45262;-81
2021/12/22 03:37:00;;;;;;;;;68.00;50.67;;;;;0.10;100.00;101993.78;5036537;28;44877;-80
2021/12/22 03:39:27;;;;;;;;;59.00;49.00;;;;;0.07;100.00;101988.56;5038757;28;44812;-79
2021/12/22 03:41:54;;;;;;;;;69.00;51.00;;;;;0.07;100.00;101975.50;5038340;28;45559;-80
2021/12/22 03:44:20;;;;;;;;;75.33;51.33;;;;;0.11;100.00;101981.59;5020724;28;45164;-79
2021/12/22 03:46:45;;;;;;;;;63.33;48.67;;;;;0.11;100.00;101974.63;5018395;28;45225;-79
2021/12/22 03:49:12;;;;;;;;;63.33;49.33;;;;;0.12;100.00;101975.47;5018493;28;44905;-79
2021/12/22 03:51:39;;;;;;;;;63.33;48.67;;;;;0.15;100.00;101981.56;5018706;28;45191;-80
2021/12/22 03:54:06;;;;;;;;;64.67;48.67;;;;;0.18;100.00;101980.69;5018625;28;45304;-80
2021/12/22 03:56:32;;;;;;;;;71.33;51.67;;;;;0.18;100.00;101981.53;5018590;28;44731;-80
2021/12/22 03:58:58;;;;;;;;;64.67;51.00;;;;;0.18;100.00;101980.69;5018845;28;44805;-80
2021/12/22 04:01:23;;;;;;;;;67.33;46.67;;;;;0.17;100.00;101981.56;5017221;28;44884;-80
2021/12/22 04:03:52;;;;;;;;;64.33;48.67;;;;;0.18;100.00;101975.44;5021432;28;45245;-80
2021/12/22 04:06:18;;;;;;;;;72.33;51.67;;;;;0.20;100.00;101977.19;5023056;28;45326;-79
2021/12/22 04:08:43;;;;;;;;;69.00;49.67;;;;;0.23;100.00;101977.16;5022841;28;45296;-81
2021/12/22 04:11:09;;;;;;;;;63.00;47.67;;;;;0.25;100.00;101980.66;5020516;28;44889;-82
2021/12/22 04:13:34;;;;;;;;;48.33;44.33;;;;;0.27;100.00;101972.81;5018694;28;45392;-79
2021/12/22 04:15:59;;;;;;;;;64.33;48.00;;;;;0.31;100.00;101971.06;5020815;28;44750;-78
2021/12/22 04:18:25;;;;;;;;;63.33;47.67;;;;;0.35;100.00;101962.31;5025936;28;45181;-80
2021/12/22 04:20:50;;;;;;;;;63.33;49.67;;;;;0.38;100.00;101951.84;5026795;28;45174;-80
2021/12/22 04:23:16;;;;;;;;;42.00;35.67;;;;;0.38;100.00;101951.84;5019603;28;45258;-80
2021/12/22 04:25:42;;;;;;;;;64.33;48.00;;;;;0.39;100.00;101945.75;5018734;28;44646;-80
2021/12/22 04:28:10;;;;;;;;;63.33;45.67;;;;;0.39;100.00;101949.22;5016960;28;44798;-79
2021/12/22 04:30:41;;;;;;;;;58.00;44.33;;;;;0.41;100.00;101963.16;5018037;28;44850;-80
2021/12/22 04:33:08;;;;;;;;;60.33;39.33;;;;;0.38;100.00;101967.50;5033202;28;45207;-79
2021/12/22 04:35:34;;;;;;;;;61.00;45.33;;;;;0.34;100.00;101976.25;5018052;28;44869;-80
2021/12/22 04:38:00;;;;;;;;;66.33;49.67;;;;;0.35;100.00;101978.00;5016598;28;44741;-80
2021/12/22 04:40:26;;;;;;;;;65.33;50.67;;;;;0.34;100.00;101971.91;5017541;28;45456;-79
2021/12/22 04:42:52;;;;;;;;;59.67;45.67;;;;;0.34;100.00;101965.78;5017352;28;45325;-80
2021/12/22 04:45:18;;;;;;;;;63.33;45.00;;;;;0.38;100.00;101975.34;5017637;28;45209;-80
2021/12/22 04:47:44;;;;;;;;;69.67;47.00;;;;;0.39;100.00;101972.75;5017252;28;45490;-80
2021/12/22 04:50:15;;;;;;;;;59.33;46.33;;;;;0.41;100.00;101973.59;5017486;28;45304;-79
2021/12/22 04:52:58;;;;;;;;;52.33;42.67;;;;;0.42;100.00;101980.56;5017812;28;45214;-79
2021/12/22 04:55:27;;;;;;;;;68.00;46.67;;;;;0.42;100.00;101985.78;5017423;28;45411;-79
2021/12/22 04:57:54;;;;;;;;;63.67;47.33;;;;;0.39;100.00;101984.97;5017530;28;44886;-80
2021/12/22 05:00:21;;;;;;;;;59.67;44.00;;;;;0.37;100.00;101990.16;5018750;28;44949;-80
2021/12/22 05:02:47;;;;;;;;;64.33;43.67;;;;;0.37;100.00;101982.34;5027826;28;45220;-80
2021/12/22 05:05:12;;;;;;;;;47.67;40.67;;;;;0.37;100.00;101984.09;5027388;28;44863;-80
2021/12/22 05:07:38;;;;;;;;;60.00;45.00;;;;;0.34;100.00;101976.25;5026477;28;44838;-79
2021/12/22 05:10:06;;;;;;;;;55.33;46.33;;;;;0.29;100.00;101978.00;5024468;28;44873;-80
2021/12/22 05:12:31;;;;;;;;;50.33;38.33;;;;;0.29;100.00;101973.69;5022260;28;45157;-80
2021/12/22 05:14:57;;;;;;;;;63.33;43.00;;;;;0.29;100.00;101973.69;5023526;28;44724;-80
2021/12/22 05:17:39;;;;;;;;;68.00;45.00;;;;;0.30;100.00;101958.88;5026693;28;44758;-80
2021/12/22 05:20:06;;;;;;;;;62.67;46.33;;;;;0.27;100.00;101954.50;5023331;28;44801;-80
2021/12/22 05:22:32;;;;;;;;;58.00;42.67;;;;;0.24;100.00;101942.34;5017955;28;44995;-80
2021/12/22 05:24:59;;;;;;;;;68.33;49.00;;;;;0.21;100.00;101952.78;5018263;28;44771;-80
2021/12/22 05:27:25;;;;;;;;;44.33;37.33;;;;;0.21;100.00;101949.31;5018444;28;44728;-81
2021/12/22 05:29:50;;;;;;;;;61.33;44.33;;;;;0.17;100.00;101952.81;5018132;28;44806;-80
2021/12/22 05:32:15;;;;;;;;;60.67;43.33;;;;;0.14;100.00;101956.28;5017921;28;45395;-80
2021/12/22 05:34:41;;;;;;;;;48.33;40.33;;;;;0.16;100.00;101956.31;5016251;28;44826;-81
2021/12/22 05:37:06;;;;;;;;;63.00;49.67;;;;;0.15;100.00;101952.84;5018084;28;45363;-80
2021/12/22 05:39:32;;;;;;;;;54.33;46.00;;;;;0.14;100.00;101953.69;5020617;28;44846;-80
2021/12/22 05:41:58;;;;;;;;;58.00;44.00;;;;;0.14;100.00;101961.53;5025185;28;45514;-81
2021/12/22 05:44:23;;;;;;;;;65.67;46.00;;;;;0.14;100.00;101960.66;5020986;28;44853;-80
2021/12/22 05:46:49;;;;;;;;;55.67;46.00;;;;;0.14;100.00;101965.88;5015931;28;44889;-80
2021/12/22 05:49:15;;;;;;;;;49.67;37.00;;;;;0.07;100.00;101959.81;5016735;28;44892;-80
2021/12/22 05:51:40;;;;;;;;;58.67;43.67;;;;;0.02;100.00;101963.34;5018475;28;45300;-82
2021/12/22 05:54:06;;;;;;;;;51.00;40.00;;;;;0.02;100.00;101966.81;5018362;28;45400;-79
2021/12/22 05:56:31;;;;;;;;;57.00;43.00;;;;;-0.01;100.00;101970.28;5016896;28;45050;-79
2021/12/22 05:58:57;;;;;;;;;60.67;41.67;;;;;0.01;100.00;101964.22;5015105;28;44786;-80
2021/12/22 06:01:22;;;;;;;;;56.67;43.67;;;;;-0.01;100.00;101967.69;5015187;28;47266;-80
2021/12/22 06:03:47;;;;;;;;;60.00;41.67;;;;;-0.01;100.00;101975.50;5015858;28;45262;-81
2021/12/22 06:06:13;;;;;;;;;62.00;46.00;;;;;0.01;100.00;101979.88;5017178;28;45064;-80
2021/12/22 06:08:38;;;;;;;;;69.67;48.33;;;;;0.01;100.00;101975.53;5019602;28;45310;-81
2021/12/22 06:11:04;;;;;;;;;61.00;43.33;;;;;0.00;100.00;101979.03;5020602;28;45250;-81
2021/12/22 06:13:29;;;;;;;;;62.33;44.00;;;;;0.02;100.00;101981.63;5020698;28;45217;-81
2021/12/22 06:15:55;;;;;;;;;70.00;49.00;;;;;0.02;100.00;101985.09;5018863;28;44846;-81
2021/12/22 06:18:21;;;;;;;;;50.00;46.00;;;;;-0.01;100.00;101975.50;5018093;28;45260;-81
2021/12/22 06:20:46;;;;;;;;;72.00;51.00;;;;;0.01;100.00;101966.81;5017540;28;45344;-82
2021/12/22 06:23:12;;;;;;;;;56.00;42.67;;;;;0.02;100.00;101964.19;5019349;28;44791;-79
2021/12/22 06:25:37;;;;;;;;;65.67;47.33;;;;;-0.03;100.00;101963.34;5019984;28;44771;-80
2021/12/22 06:28:04;;;;;;;;;40.00;38.67;;;;;-0.08;100.00;101968.59;5025100;28;45328;-81
2021/12/22 06:30:30;;;;;;;;;49.33;41.67;;;;;-0.05;100.00;101970.31;5024800;28;44977;-81
2021/12/22 06:32:55;;;;;;;;;64.67;47.33;;;;;-0.06;100.00;101972.03;5022692;28;44754;-80
2021/12/22 06:35:20;;;;;;;;;58.33;45.67;;;;;-0.06;100.00;101966.81;5022279;28;45294;-82
2021/12/22 06:37:46;;;;;;;;;60.33;47.00;;;;;-0.06;100.00;101971.19;5025999;28;45444;-81
2021/12/22 06:40:12;;;;;;;;;58.67;44.33;;;;;-0.08;100.00;101978.16;5027063;28;45052;-81
2021/12/22 06:42:39;;;;;;;;;57.33;44.33;;;;;-0.08;100.00;101978.16;5025745;28;44813;-79
2021/12/22 06:45:11;;;;;;;;;64.00;47.00;;;;;-0.09;100.00;101973.81;5022590;28;44674;-81
2021/12/22 06:47:37;;;;;;;;;51.33;39.67;;;;;-0.12;100.00;101973.81;5032950;28;45517;-81
2021/12/22 06:50:06;;;;;;;;;52.00;46.00;;;;;-0.13;100.00;101972.09;5015722;28;44977;-81
2021/12/22 06:52:31;;;;;;;;;55.67;43.33;;;;;-0.11;100.00;101972.94;5016397;28;45300;-81
2021/12/22 06:54:57;;;;;;;;;62.67;49.33;;;;;-0.09;100.00;101979.06;5016619;28;45405;-81
2021/12/22 06:57:23;;;;;;;;;66.00;53.33;;;;;-0.09;100.00;101979.91;5016631;28;45285;-82
2021/12/22 06:59:48;;;;;;;;;63.33;48.33;;;;;-0.07;100.00;101991.22;5015695;28;45342;-81
2021/12/22 07:02:14;;;;;;;;;64.67;47.33;;;;;-0.07;100.00;101988.59;5015784;28;45392;-81
2021/12/22 07:04:40;;;;;;;;;65.33;47.33;;;;;-0.05;100.00;101985.97;5015901;28;44749;-81
2021/12/22 07:07:05;;;;;;;;;66.00;47.00;;;;;-0.03;100.00;101987.72;5015042;28;45258;-82
2021/12/22 07:09:31;;;;;;;;;58.00;44.33;;;;;-0.01;100.00;101980.75;5019820;28;45039;-82
2021/12/22 07:11:56;;;;;;;;;64.67;44.67;;;;;-0.02;100.00;101988.59;5028413;28;44727;-82
2021/12/22 07:14:22;;;;;;;;;50.00;38.33;;;;;-0.02;100.00;101981.63;5031043;28;44727;-83
2021/12/22 07:16:48;;;;;;;;;64.33;45.67;;;;;-0.01;100.00;101967.69;5025313;28;45309;-81
2021/12/22 07:19:16;;;;;;;;;63.67;50.33;;;;;0.04;100.00;101966.78;5023881;28;45397;-88
2021/12/22 07:21:41;;;;;;;;;63.00;46.33;;;;;0.01;100.00;101965.09;5026503;28;44785;-82
2021/12/22 07:24:07;;;;;;;;;57.00;45.33;;;;;0.02;100.00;101973.78;5020162;28;45723;-83
2021/12/22 07:26:33;;;;;;;;;70.67;51.00;;;;;0.03;100.00;101976.38;5019328;28;44869;-82
2021/12/22 07:28:59;;;;;;;;;69.67;50.67;;;;;0.01;100.00;101972.91;5020298;28;45448;-83
2021/12/22 07:31:25;;;;;;;;;64.33;46.33;;;;;-0.02;100.00;101968.56;5028430;28;44933;-88
2021/12/22 07:34:05;;;;;;;;;75.00;49.00;;;;;-0.01;100.00;101975.50;5035680;28;44719;-87
2021/12/22 07:36:34;;;;;;;;;54.00;39.67;;;;;0.02;100.00;101981.63;5046969;28;44861;-88
2021/12/22 07:39:03;;;;;;;;;62.67;41.33;;;;;-0.02;100.00;101976.38;5021833;28;45321;-88
2021/12/22 07:41:30;;;;;;;;;59.00;46.00;;;;;-0.07;100.00;101975.53;5019823;28;44779;-91
2021/12/22 07:43:56;;;;;;;;;67.00;47.33;;;;;-0.09;100.00;101973.81;5034700;28;44741;-88
2021/12/22 07:46:22;;;;;;;;;56.67;36.33;;;;;-0.09;100.00;101969.47;5042224;28;45386;-89
2021/12/22 07:48:49;;;;;;;;;62.33;46.67;;;;;-0.08;100.00;101968.59;5038443;28;45564;-89
2021/12/22 07:51:15;;;;;;;;;69.33;48.67;;;;;-0.06;100.00;101973.78;5056224;28;44812;-86
2021/12/22 07:53:40;;;;;;;;;65.00;47.00;;;;;-0.04;100.00;101966.84;5040763;28;44843;-87
2021/12/22 07:56:06;;;;;;;;;63.67;49.33;;;;;-0.01;100.00;101974.66;5040522;28;44909;-89
2021/12/22 07:58:32;;;;;;;;;67.67;50.67;;;;;0.03;100.00;101972.91;5049290;28;46742;-89
2021/12/22 08:00:58;;;;;;;;;66.67;51.00;;;;;0.06;100.00;101978.13;5048902;28;44729;-89
2021/12/22 08:03:25;;;;;;;;;65.33;48.33;;;;;0.02;100.00;101979.88;5064153;28;44797;-90
2021/12/22 08:05:53;;;;;;;;;64.33;48.33;;;;;0.01;100.00;101974.66;5031946;28;44872;-88
2021/12/22 08:08:33;;;;;;;;;57.67;42.67;;;;;-0.02;100.00;101986.84;5042896;28;45485;-87
2021/12/22 08:10:58;;;;;;;;;65.00;45.33;;;;;-0.01;100.00;101982.47;5059820;28;44809;-87
2021/12/22 08:13:24;;;;;;;;;63.67;44.33;;;;;0.02;100.00;101992.06;5061756;28;44677;-88
2021/12/22 08:15:50;;;;;;;;;59.33;43.00;;;;;0.06;100.00;101999.03;5047816;28;44847;-88
2021/12/22 08:18:17;;;;;;;;;65.33;48.00;;;;;0.06;100.00;101983.34;5058541;28;46664;-86
2021/12/22 08:20:44;;;;;;;;;68.67;49.33;;;;;0.05;100.00;101981.59;5048999;28;44773;-92
2021/12/22 08:23:10;;;;;;;;;71.33;54.33;;;;;0.08;100.00;101976.38;5043733;28;44967;-87
2021/12/22 08:25:35;;;;;;;;;70.33;50.33;;;;;0.13;100.00;101970.25;5040730;28;44808;-88
2021/12/22 08:28:04;;;;;;;;;69.33;54.67;;;;;0.16;100.00;101969.38;5039963;28;45098;-93
2021/12/22 08:30:30;;;;;;;;;63.67;48.33;;;;;0.20;100.00;101966.75;5046263;28;44795;-89
2021/12/22 08:33:05;;;;;;;;;64.67;45.33;;;;;0.22;100.00;101966.72;5048432;28;44869;-92
2021/12/22 08:38:49;;;;;;;;;81.67;54.00;;;;;0.25;100.00;101964.13;5042730;28;44849;-88
2021/12/22 08:41:00;;;;;;;;;66.67;52.33;;;;;0.36;100.00;101977.13;5041326;28;44836;-88
2021/12/22 08:43:25;;;;;;;;;62.67;51.33;;;;;0.39;100.00;101970.16;5046828;28;44942;-86
2021/12/22 08:45:51;;;;;;;;;76.00;49.33;;;;;0.39;100.00;101972.75;5019310;28;44955;-87
2021/12/22 08:48:16;;;;;;;;;70.67;51.00;;;;;0.38;100.00;101963.16;5018391;28;45377;-88
2021/12/22 08:50:42;;;;;;;;;60.00;47.67;;;;;0.43;100.00;101964.00;5025670;28;44786;-87
2021/12/22 08:53:07;;;;;;;;;65.00;46.67;;;;;0.40;100.00;101958.81;5026120;28;44860;-86
2021/12/22 08:55:32;;;;;;;;;68.67;48.67;;;;;0.42;100.00;101961.41;5026753;28;44893;-87
2021/12/22 08:58:00;;;;;;;;;65.33;49.67;;;;;0.48;100.00;101963.97;5039693;28;46473;-88
2021/12/22 09:00:26;;;;;;;;;61.67;45.00;;;;;0.47;100.00;101949.16;5030497;28;44798;-87
2021/12/22 09:02:51;;;;;;;;;65.67;48.67;;;;;0.44;100.00;101943.97;5040429;28;44837;-89
2021/12/22 09:05:20;;;;;;;;;66.00;48.67;;;;;0.43;100.00;101940.47;5020463;28;44824;-89
2021/12/22 09:07:45;;;;;;;;;68.00;45.33;;;;;0.51;100.00;101948.28;5022433;28;45387;-89
2021/12/22 09:10:11;;;;;;;;;66.67;50.67;;;;;0.54;100.00;101944.78;5032135;28;44831;-86
2021/12/22 09:12:36;;;;;;;;;72.33;46.67;;;;;0.59;100.00;101946.50;5033917;28;44825;-87
2021/12/22 09:15:02;;;;;;;;;72.33;48.67;;;;;0.58;100.00;101944.78;5038942;28;45013;-92
2021/12/22 09:17:28;;;;;;;;;62.33;46.67;;;;;0.57;100.00;101937.78;5037291;28;45157;-87
2021/12/22 09:19:54;;;;;;;;;71.00;49.00;;;;;0.50;100.00;101943.94;5042811;28;44680;-87
2021/12/22 09:22:21;;;;;;;;;59.33;40.67;;;;;0.57;100.00;101953.47;5046366;28;44726;-87
2021/12/22 09:24:47;;;;;;;;;71.33;47.67;;;;;0.57;100.00;101949.97;5046842;28;44746;-88
2021/12/22 09:27:12;;;;;;;;;51.00;41.33;;;;;0.60;100.00;101952.59;5058375;28;45299;-88
2021/12/22 09:29:39;;;;;;;;;61.00;44.67;;;;;0.62;100.00;101948.22;5066638;28;44686;-89
2021/12/22 09:32:05;;;;;;;;;65.00;47.33;;;;;0.64;100.00;101947.34;5066873;28;44746;-88
2021/12/22 09:34:31;;;;;;;;;63.33;46.00;;;;;0.68;100.00;101945.56;5075981;28;44912;-88
2021/12/22 09:37:00;;;;;;;;;66.67;46.67;;;;;0.71;100.00;101950.78;5061064;28;45233;-88
2021/12/22 09:39:26;;;;;;;;;62.00;49.00;;;;;0.73;100.00;101949.91;5043315;28;44773;-88
2021/12/22 09:41:52;;;;;;;;;67.33;46.67;;;;;0.73;100.00;101949.91;5059602;28;44995;-89
2021/12/22 09:44:18;;;;;;;;;60.33;46.00;;;;;0.73;100.00;101949.91;5032244;28;44820;-88
2021/12/22 09:46:49;;;;;;;;;58.67;47.33;;;;;0.80;100.00;101952.47;5028309;28;45061;-90
2021/12/22 09:52:23;;;;;;;;;66.67;50.00;;;;;0.93;100.00;101960.22;5025662;28;44731;-87
2021/12/22 09:54:52;;;;;;;;;51.33;42.00;;;;;0.95;100.00;101957.56;5038130;28;44848;-88
2021/12/22 09:57:20;;;;;;;;;64.00;47.00;;;;;0.97;100.00;101966.28;5021327;28;45352;-88
2021/12/22 09:59:47;;;;;;;;;64.00;47.67;;;;;0.95;100.00;101963.66;5019421;28;44805;-88
2021/12/22 10:02:15;;;;;;;;;35.67;30.33;;;;;0.97;100.00;101964.53;5019775;28;44807;-85
2021/12/22 10:04:40;;;;;;;;;48.67;43.33;;;;;1.02;100.00;101973.22;5017428;28;44955;-87
2021/12/22 10:07:08;;;;;;;;;62.33;47.33;;;;;1.02;100.00;101968.00;5020063;28;45119;-86
2021/12/22 10:09:42;;;;;;;;;80.33;54.67;;;;;1.04;100.00;101960.13;5019037;28;44707;-88
2021/12/22 10:12:17;;;;;;;;;68.00;52.33;;;;;1.07;100.00;101957.50;5034039;28;45365;-87
2021/12/22 10:14:58;;;;;;;;;67.33;50.67;;;;;1.11;100.00;101946.09;5019676;28;45644;-87
2021/12/22 10:17:27;;;;;;;;;71.33;51.00;;;;;1.21;100.00;101954.72;5016663;28;45022;-87
2021/12/22 10:19:56;;;;;;;;;59.67;48.33;;;;;1.25;100.00;101949.47;5022909;28;45377;-88
2021/12/22 10:22:29;;;;;;;;;65.33;47.67;;;;;1.33;100.00;101964.25;5017449;28;45468;-87
2021/12/22 10:25:10;;;;;;;;;62.33;49.33;;;;;1.33;100.00;101964.25;5023235;28;44748;-86
2021/12/22 10:27:35;;;;;;;;;67.67;50.67;;;;;1.29;100.00;101961.63;5021752;28;45088;-87
2021/12/22 10:30:24;;;;;;;;;58.67;41.33;;;;;1.34;100.00;101955.50;5024242;28;45285;-87
2021/12/22 10:33:05;;;;;;;;;64.00;49.67;;;;;1.41;100.00;101949.34;5026899;28;44913;-89
2021/12/22 10:35:33;;;;;;;;;64.33;48.33;;;;;1.48;100.00;101959.72;5023267;28;45446;-87
2021/12/22 10:38:00;;;;;;;;;49.33;33.67;;;;;1.54;100.00;101956.19;5017109;28;45443;-84
2021/12/22 10:40:28;;;;;;;;;66.00;49.67;;;;;1.57;100.00;101952.66;5017329;28;45356;-84
2021/12/22 10:42:53;;;;;;;;;68.67;48.67;;;;;1.58;100.00;101949.16;5021329;28;44735;-86
2021/12/22 10:45:20;;;;;;;;;69.33;50.67;;;;;1.60;100.00;101943.03;5039573;28;45373;-87
2021/12/22 10:50:35;;;;;;;;;62.00;49.33;;;;;1.71;100.00;101937.69;5013689;28;44714;-86
2021/12/22 10:53:00;;;;;;;;;57.33;45.00;;;;;1.70;100.00;101923.72;5018268;28;45380;-86
2021/12/22 10:55:36;;;;;;;;;59.67;45.33;;;;;1.73;100.00;101917.56;5019369;28;44726;-86
2021/12/22 10:58:13;;;;;;;;;71.00;53.00;;;;;1.73;100.00;101904.47;5016197;28;45564;-87
2021/12/22 11:00:38;;;;;;;;;60.33;43.67;;;;;1.75;100.00;101897.47;5016499;28;44745;-86
2021/12/22 11:03:10;;;;;;;;;51.33;44.33;;;;;1.75;100.00;101897.47;5018998;28;44727;-88
2021/12/22 11:05:49;;;;;;;;;71.00;49.00;;;;;1.77;100.00;101896.56;5017064;28;44860;-87
2021/12/22 11:08:26;;;;;;;;;70.67;50.00;;;;;1.76;100.00;101900.06;5016540;28;45440;-87
2021/12/22 11:10:53;;;;;;;;;68.33;50.00;;;;;1.78;100.00;101897.41;5019464;28;44838;-85
2021/12/22 11:13:20;;;;;;;;;67.33;47.33;;;;;1.74;100.00;101900.97;5018763;28;44849;-84
2021/12/22 11:15:46;;;;;;;;;59.00;40.33;;;;;1.70;100.00;101889.66;5024311;28;45345;-86
2021/12/22 11:18:29;;;;;;;;;58.67;44.67;;;;;1.65;100.00;101896.72;5030306;28;44926;-86
2021/12/22 11:21:10;;;;;;;;;68.67;41.33;;;;;1.68;100.00;101891.41;5028666;28;44887;-86
2021/12/22 11:23:35;;;;;;;;;60.00;47.00;;;;;1.73;100.00;101883.50;5017095;28;44824;-86